createdAt,value
2023-04-16T00:01:46.618Z,22.00
2023-04-16T00:04:15.012Z,23.90
2023-04-16T00:06:43.227Z,22.70
2023-04-16T00:09:11.667Z,24.30
2023-04-16T00:11:39.782Z,20.20
2023-04-16T00:14:07.790Z,21.20
2023-04-16T00:16:35.807Z,20.90
2023-04-16T00:19:03.996Z,20.50
2023-04-16T00:21:32.378Z,18.00
2023-04-16T00:24:00.450Z,19.10
2023-04-16T00:26:28.517Z,21.10
2023-04-16T00:28:56.795Z,18.80
2023-04-16T00:31:32.866Z,21.60
2023-04-16T00:34:01.078Z,22.90
2023-04-16T00:36:29.541Z,18.80
2023-04-16T00:38:57.689Z,24.70
2023-04-16T00:41:26.984Z,22.90
2023-04-16T00:43:55.057Z,23.00
2023-04-16T00:46:25.068Z,23.60
2023-04-16T00:48:54.473Z,22.40
2023-04-16T00:51:22.763Z,24.10
2023-04-16T00:53:51.238Z,24.70
2023-04-16T00:56:20.567Z,21.60
2023-04-16T00:58:49.830Z,24.60
2023-04-16T01:01:18.138Z,23.30
2023-04-16T01:03:48.030Z,25.20
2023-04-16T01:06:17.954Z,23.40
2023-04-16T01:08:47.855Z,23.30
2023-04-16T01:11:16.655Z,20.90
2023-04-16T01:13:44.717Z,20.80
2023-04-16T01:16:13.140Z,18.60
2023-04-16T01:18:41.276Z,23.40
2023-04-16T01:21:09.649Z,22.10
2023-04-16T01:23:38.131Z,20.10
2023-04-16T01:26:06.616Z,20.10
2023-04-16T01:28:34.691Z,17.10
2023-04-16T01:31:02.794Z,20.40
2023-04-16T01:33:44.356Z,16.50
2023-04-16T01:36:13.379Z,17.20
2023-04-16T01:38:41.518Z,19.00
2023-04-16T01:41:09.443Z,21.20
2023-04-16T01:43:40.036Z,19.10
2023-04-16T01:46:29.672Z,19.00
2023-04-16T01:48:58.583Z,15.80
2023-04-16T01:51:28.305Z,15.30
2023-04-16T01:53:58.421Z,16.00
2023-04-16T01:56:26.791Z,17.40
2023-04-16T01:58:54.981Z,16.90
2023-04-16T02:01:24.363Z,15.10
2023-04-16T02:03:53.596Z,18.50
2023-04-16T02:06:21.743Z,15.00
2023-04-16T02:08:50.127Z,17.30
2023-04-16T02:11:18.231Z,13.40
2023-04-16T02:13:47.095Z,16.00
2023-04-16T02:16:15.702Z,15.60
2023-04-16T02:19:13.435Z,16.30
2023-04-16T02:21:42.014Z,17.00
2023-04-16T02:24:10.295Z,17.20
2023-04-16T02:26:38.567Z,17.10
2023-04-16T02:29:09.971Z,17.60
2023-04-16T02:31:42.874Z,14.80
2023-04-16T02:34:11.478Z,18.40
2023-04-16T02:36:39.767Z,17.30
2023-04-16T02:39:08.544Z,20.70
2023-04-16T02:41:37.033Z,15.90
2023-04-16T02:44:05.769Z,17.00
2023-04-16T02:46:33.803Z,16.00
2023-04-16T02:49:01.863Z,14.40
2023-04-16T02:51:30.337Z,14.60
2023-04-16T02:53:58.419Z,15.30
2023-04-16T02:56:26.312Z,33.20
2023-04-16T02:58:54.559Z,17.00
2023-04-16T03:01:22.586Z,16.20
2023-04-16T03:03:50.722Z,17.60
2023-04-16T03:06:18.992Z,17.30
2023-04-16T03:08:46.962Z,13.10
2023-04-16T03:11:15.079Z,14.80
2023-04-16T03:13:43.200Z,14.70
2023-04-16T03:16:11.975Z,12.90
2023-04-16T03:18:40.261Z,12.50
2023-04-16T03:21:08.327Z,13.30
2023-04-16T03:23:36.703Z,13.10
2023-04-16T03:26:06.721Z,15.80
2023-04-16T03:28:35.106Z,15.60
2023-04-16T03:31:03.605Z,12.30
2023-04-16T03:33:31.885Z,15.00
2023-04-16T03:35:59.955Z,13.00
2023-04-16T03:38:30.593Z,14.80
2023-04-16T03:40:59.974Z,15.80
2023-04-16T03:43:28.244Z,18.00
2023-04-16T03:45:56.680Z,21.80
2023-04-16T03:48:24.815Z,21.30
2023-04-16T03:50:54.329Z,19.40
2023-04-16T03:53:22.555Z,19.40
2023-04-16T03:55:51.953Z,18.40
2023-04-16T03:58:21.294Z,17.50
2023-04-16T04:00:49.364Z,15.60
2023-04-16T04:03:18.834Z,17.70
2023-04-16T04:05:48.786Z,13.70
2023-04-16T04:08:20.950Z,14.80
2023-04-16T04:10:49.015Z,17.60
2023-04-16T04:13:17.089Z,16.80
2023-04-16T04:15:45.475Z,14.80
2023-04-16T04:18:13.369Z,14.70
2023-04-16T04:20:41.545Z,14.70
2023-04-16T04:23:09.675Z,12.60
2023-04-16T04:25:37.722Z,16.30
2023-04-16T04:28:05.841Z,14.60
2023-04-16T04:30:35.890Z,14.00
2023-04-16T04:33:04.658Z,13.70
2023-04-16T04:35:33.236Z,13.80
2023-04-16T04:38:03.692Z,13.70
2023-04-16T04:40:32.335Z,13.90
2023-04-16T04:43:00.396Z,15.90
2023-04-16T04:45:31.201Z,17.00
2023-04-16T04:48:00.212Z,16.40
2023-04-16T04:50:28.727Z,18.30
2023-04-16T04:52:56.892Z,20.10
2023-04-16T04:55:25.059Z,19.70
2023-04-16T04:57:53.048Z,19.20
2023-04-16T05:00:22.026Z,18.80
2023-04-16T05:02:55.377Z,17.80
2023-04-16T05:05:23.645Z,25.50
2023-04-16T05:07:51.978Z,18.10
2023-04-16T05:10:20.352Z,19.80
2023-04-16T05:12:49.100Z,15.90
2023-04-16T05:15:17.320Z,16.20
2023-04-16T05:17:45.712Z,15.80
2023-04-16T05:20:13.964Z,21.60
2023-04-16T05:22:42.095Z,15.80
2023-04-16T05:25:10.733Z,18.50
2023-04-16T05:27:38.931Z,15.10
2023-04-16T05:30:07.890Z,15.70
2023-04-16T05:32:37.432Z,14.20
2023-04-16T05:35:06.445Z,14.10
2023-04-16T05:37:34.424Z,15.50
2023-04-16T05:40:02.619Z,14.80
2023-04-16T05:42:30.710Z,15.60
2023-04-16T05:44:58.775Z,14.00
2023-04-16T05:47:26.877Z,12.70
2023-04-16T05:49:54.991Z,13.90
2023-04-16T05:52:22.962Z,12.50
2023-04-16T05:54:51.068Z,14.40
2023-04-16T05:57:19.052Z,17.80
2023-04-16T05:59:47.114Z,11.50
2023-04-16T06:02:15.219Z,18.00
2023-04-16T06:04:44.169Z,9.20
2023-04-16T06:07:12.142Z,11.70
2023-04-16T06:09:40.094Z,9.50
2023-04-16T06:12:08.181Z,10.80
2023-04-16T06:14:36.359Z,11.50
2023-04-16T06:17:04.681Z,9.90
2023-04-16T06:19:32.786Z,8.70
2023-04-16T06:22:01.188Z,6.30
2023-04-16T06:24:29.672Z,7.60
2023-04-16T06:26:58.057Z,6.60
2023-04-16T06:29:33.664Z,6.30
2023-04-16T06:32:08.824Z,5.10
2023-04-16T06:34:38.515Z,6.00
2023-04-16T06:37:09.137Z,7.40
2023-04-16T06:39:38.610Z,6.10
2023-04-16T06:42:06.751Z,5.80
2023-04-16T06:44:35.942Z,7.30
2023-04-16T06:47:04.137Z,6.80
2023-04-16T06:49:32.312Z,8.20
2023-04-16T06:52:00.904Z,6.40
2023-04-16T06:54:28.951Z,7.70
2023-04-16T06:56:57.017Z,6.30
2023-04-16T06:59:25.400Z,7.80
2023-04-16T07:01:53.681Z,7.40
2023-04-16T07:04:22.010Z,7.40
2023-04-16T07:06:50.244Z,7.60
2023-04-16T07:09:18.311Z,7.80
2023-04-16T07:11:47.215Z,8.80
2023-04-16T07:14:15.363Z,7.30
2023-04-16T07:16:43.483Z,7.10
2023-04-16T07:19:12.035Z,10.80
2023-04-16T07:21:42.192Z,7.00
2023-04-16T07:24:13.884Z,7.80
2023-04-16T07:26:41.968Z,7.20
2023-04-16T07:29:10.302Z,8.20
2023-04-16T07:31:38.948Z,6.90
2023-04-16T07:34:07.406Z,7.50
2023-04-16T07:36:35.482Z,15.50
2023-04-16T07:39:06.324Z,7.30
2023-04-16T07:41:34.464Z,6.90
2023-04-16T07:44:02.562Z,6.50
2023-04-16T07:46:39.312Z,6.90
2023-04-16T07:49:13.959Z,6.70
2023-04-16T07:51:42.059Z,10.90
2023-04-16T07:54:11.242Z,4.80
2023-04-16T07:56:39.521Z,5.60
2023-04-16T07:59:21.030Z,7.30
2023-04-16T08:01:54.276Z,7.40
2023-04-16T08:04:26.383Z,7.30
2023-04-16T08:06:54.719Z,9.00
2023-04-16T08:09:24.446Z,6.60
2023-04-16T08:11:52.639Z,7.90
2023-04-16T08:14:21.010Z,7.20
2023-04-16T08:16:49.988Z,8.40
2023-04-16T08:19:18.386Z,6.90
2023-04-16T08:21:47.369Z,7.70
2023-04-16T08:24:15.620Z,7.90
2023-04-16T08:26:43.825Z,9.30
2023-04-16T08:29:12.033Z,5.50
2023-04-16T08:31:41.216Z,5.70
2023-04-16T08:34:11.618Z,9.60
2023-04-16T08:36:41.175Z,7.40
2023-04-16T08:39:09.847Z,9.80
2023-04-16T08:41:42.595Z,5.60
2023-04-16T08:44:33.869Z,5.50
2023-04-16T08:47:02.461Z,10.10
2023-04-16T08:49:35.162Z,6.80
2023-04-16T08:52:06.818Z,12.20
2023-04-16T08:55:00.498Z,9.80
2023-04-16T08:57:36.557Z,6.10
2023-04-16T09:00:06.789Z,5.60
2023-04-16T09:02:35.961Z,5.00
2023-04-16T09:05:07.157Z,4.50
2023-04-16T09:07:35.710Z,6.00
2023-04-16T09:10:06.117Z,6.30
2023-04-16T09:12:35.717Z,5.50
2023-04-16T09:15:05.633Z,9.80
2023-04-16T09:17:34.676Z,3.40
2023-04-16T09:20:06.076Z,4.90
2023-04-16T09:22:35.113Z,6.00
2023-04-16T09:25:03.885Z,4.40
2023-04-16T09:27:32.356Z,4.70
2023-04-16T09:30:00.534Z,5.00
2023-04-16T09:32:29.268Z,5.90
2023-04-16T09:35:02.022Z,5.60
2023-04-16T09:37:31.826Z,4.80
2023-04-16T09:40:06.746Z,4.90
2023-04-16T09:42:37.247Z,5.30
2023-04-16T09:45:06.562Z,5.20
2023-04-16T09:47:46.053Z,5.40
2023-04-16T09:50:19.578Z,5.70
2023-04-16T09:52:51.590Z,7.90
2023-04-16T09:55:28.149Z,5.80
2023-04-16T09:58:01.349Z,4.60
2023-04-16T10:00:31.629Z,5.40
2023-04-16T10:03:07.560Z,7.30
2023-04-16T10:05:37.141Z,5.00
2023-04-16T10:08:12.391Z,6.30
2023-04-16T10:10:40.750Z,3.90
2023-04-16T10:13:10.137Z,4.60
2023-04-16T10:15:39.110Z,3.50
2023-04-16T10:18:07.419Z,5.10
2023-04-16T10:20:36.816Z,8.40
2023-04-16T10:23:05.641Z,5.10
2023-04-16T10:25:34.195Z,5.70
2023-04-16T10:28:03.182Z,6.10
2023-04-16T10:30:31.584Z,11.20
2023-04-16T10:33:00.842Z,7.50
2023-04-16T10:35:30.890Z,5.60
2023-04-16T10:38:23.446Z,3.60
2023-04-16T10:40:59.623Z,8.60
2023-04-16T10:43:30.137Z,4.80
2023-04-16T10:46:17.264Z,5.10
2023-04-16T10:48:50.408Z,3.50
2023-04-16T10:51:36.447Z,4.20
2023-04-16T10:54:19.852Z,4.70
2023-04-16T10:56:48.325Z,3.00
2023-04-16T10:59:20.185Z,5.80
2023-04-16T11:02:01.704Z,5.60
2023-04-16T11:04:34.728Z,7.20
2023-04-16T11:07:14.011Z,3.70
2023-04-16T11:09:54.059Z,4.60
2023-04-16T11:12:31.137Z,3.80
2023-04-16T11:15:05.960Z,9.10
2023-04-16T11:17:38.024Z,5.30
2023-04-16T11:20:18.826Z,3.30
2023-04-16T11:22:53.180Z,4.30
2023-04-16T11:25:26.209Z,4.60
2023-04-16T11:27:54.991Z,4.00
2023-04-16T11:30:31.413Z,16.80
2023-04-16T11:33:02.310Z,4.20
2023-04-16T11:35:30.671Z,5.30
2023-04-16T11:37:59.786Z,6.40
2023-04-16T11:40:31.725Z,3.00
2023-04-16T11:43:05.190Z,2.40
2023-04-16T11:45:33.177Z,3.60
2023-04-16T11:48:01.302Z,2.30
2023-04-16T11:50:29.861Z,2.10
2023-04-16T11:53:04.535Z,2.90
2023-04-16T11:55:32.812Z,4.40
2023-04-16T11:58:12.937Z,2.30
2023-04-16T12:00:41.827Z,3.60
2023-04-16T12:03:10.267Z,2.30
2023-04-16T12:05:40.857Z,2.00
2023-04-16T12:08:11.438Z,4.00
2023-04-16T12:10:56.140Z,3.70
2023-04-16T12:13:24.181Z,3.70
2023-04-16T12:15:56.343Z,3.40
2023-04-16T12:18:29.137Z,7.60
2023-04-16T12:20:57.213Z,6.10
2023-04-16T12:23:27.589Z,5.80
2023-04-16T12:25:59.847Z,6.30
2023-04-16T12:28:30.166Z,6.00
2023-04-16T12:30:58.744Z,4.00
2023-04-16T12:33:27.086Z,5.60
2023-04-16T12:35:55.480Z,3.90
2023-04-16T12:38:24.620Z,4.00
2023-04-16T12:40:56.981Z,3.90
2023-04-16T12:43:26.058Z,3.70
2023-04-16T12:45:54.580Z,4.50
2023-04-16T12:48:22.688Z,3.20
2023-04-16T12:50:53.997Z,5.60
2023-04-16T12:53:21.990Z,5.40
2023-04-16T12:55:50.165Z,4.40
2023-04-16T12:58:18.239Z,4.10
2023-04-16T13:00:46.413Z,4.10
2023-04-16T13:03:14.557Z,4.20
2023-04-16T13:05:42.909Z,6.30
2023-04-16T13:08:11.346Z,5.10
2023-04-16T13:10:39.417Z,3.60
2023-04-16T13:13:07.794Z,5.80
2023-04-16T13:15:35.953Z,5.20
2023-04-16T13:18:04.678Z,9.00
2023-04-16T13:20:33.652Z,8.20
2023-04-16T13:23:01.820Z,6.70
2023-04-16T13:25:31.210Z,7.70
2023-04-16T13:27:59.296Z,3.90
2023-04-16T13:30:29.516Z,4.80
2023-04-16T13:32:57.642Z,4.50
2023-04-16T13:35:26.490Z,4.30
2023-04-16T13:37:54.552Z,5.30
2023-04-16T13:40:22.581Z,7.40
2023-04-16T13:42:51.010Z,3.90
2023-04-16T13:45:20.566Z,8.00
2023-04-16T13:47:48.705Z,6.40
2023-04-16T13:50:16.961Z,4.60
2023-04-16T13:52:45.048Z,5.50
2023-04-16T13:55:14.336Z,6.70
2023-04-16T13:57:42.501Z,6.10
2023-04-16T14:00:13.226Z,7.00
2023-04-16T14:02:43.101Z,5.00
2023-04-16T14:05:11.856Z,4.60
2023-04-16T14:07:39.895Z,6.10
2023-04-16T14:10:09.157Z,6.30
2023-04-16T14:12:38.814Z,8.50
2023-04-16T14:15:09.697Z,8.10
2023-04-16T14:17:38.008Z,4.90
2023-04-16T14:20:07.014Z,6.10
2023-04-16T14:22:35.138Z,5.30
2023-04-16T14:25:03.584Z,5.70
2023-04-16T14:27:31.870Z,7.40
2023-04-16T14:30:00.772Z,6.40
2023-04-16T14:32:28.948Z,7.60
2023-04-16T14:34:57.714Z,5.60
2023-04-16T14:37:26.813Z,5.70
2023-04-16T14:39:55.076Z,7.60
2023-04-16T14:42:23.060Z,4.80
2023-04-16T14:44:52.244Z,6.00
2023-04-16T14:47:20.418Z,7.50
2023-04-16T14:49:48.503Z,4.20
2023-04-16T14:52:17.129Z,5.30
2023-04-16T14:54:45.417Z,4.10
2023-04-16T14:57:14.272Z,6.40
2023-04-16T14:59:42.318Z,10.30
2023-04-16T15:02:11.049Z,4.60
2023-04-16T15:04:39.382Z,5.20
2023-04-16T15:07:07.863Z,3.90
2023-04-16T15:09:36.038Z,5.10
2023-04-16T15:12:04.731Z,4.20
2023-04-16T15:14:32.894Z,4.50
2023-04-16T15:17:01.555Z,3.90
2023-04-16T15:19:29.964Z,5.90
2023-04-16T15:21:58.239Z,4.10
2023-04-16T15:24:26.816Z,7.30
2023-04-16T15:26:54.997Z,3.00
2023-04-16T15:29:23.171Z,3.60
2023-04-16T15:31:51.237Z,4.10
2023-04-16T15:34:19.347Z,6.10
2023-04-16T15:36:47.794Z,5.50
2023-04-16T15:39:16.068Z,2.90
2023-04-16T15:41:59.327Z,5.50
2023-04-16T15:44:29.924Z,3.50
2023-04-16T15:46:58.407Z,3.80
2023-04-16T15:49:26.683Z,2.30
2023-04-16T15:51:56.295Z,3.10
2023-04-16T15:54:24.475Z,4.50
2023-04-16T15:56:52.672Z,4.80
2023-04-16T15:59:20.918Z,3.30
2023-04-16T16:01:49.213Z,3.50
2023-04-16T16:04:17.439Z,4.30
2023-04-16T16:06:45.847Z,3.90
2023-04-16T16:09:14.235Z,2.60
2023-04-16T16:11:42.522Z,3.20
2023-04-16T16:14:11.107Z,4.80
2023-04-16T16:16:39.939Z,4.50
2023-04-16T16:19:08.562Z,4.60
2023-04-16T16:21:37.269Z,4.20
2023-04-16T16:24:05.770Z,3.20
2023-04-16T16:26:34.006Z,3.20
2023-04-16T16:29:02.074Z,3.60
2023-04-16T16:31:30.208Z,4.60
2023-04-16T16:33:58.528Z,3.20
2023-04-16T16:36:27.626Z,4.20
2023-04-16T16:38:55.687Z,3.60
2023-04-16T16:41:23.773Z,2.80
2023-04-16T16:43:55.937Z,2.30
2023-04-16T16:46:24.135Z,2.80
2023-04-16T16:48:52.829Z,3.00
2023-04-16T16:51:21.679Z,2.10
2023-04-16T16:53:49.749Z,1.70
2023-04-16T16:56:17.822Z,3.40
2023-04-16T16:58:46.618Z,3.20
2023-04-16T17:01:14.732Z,2.00
2023-04-16T17:03:43.000Z,1.50
2023-04-16T17:06:11.297Z,1.50
2023-04-16T17:08:39.519Z,3.20
2023-04-16T17:11:07.595Z,2.10
2023-04-16T17:13:35.965Z,4.30
2023-04-16T17:16:04.192Z,2.00
2023-04-16T17:18:32.835Z,2.40
2023-04-16T17:21:01.557Z,2.00
2023-04-16T17:23:29.510Z,2.10
2023-04-16T17:25:59.497Z,3.30
2023-04-16T17:28:27.581Z,4.30
2023-04-16T17:30:56.977Z,3.90
2023-04-16T17:33:25.256Z,5.60
2023-04-16T17:35:53.356Z,3.10
2023-04-16T17:38:21.709Z,5.00
2023-04-16T17:40:49.768Z,3.00
2023-04-16T17:43:18.056Z,3.80
2023-04-16T17:45:46.152Z,4.20
2023-04-16T17:48:14.536Z,5.40
2023-04-16T17:50:42.672Z,3.60
2023-04-16T17:53:11.057Z,5.70
2023-04-16T17:55:39.289Z,3.20
2023-04-16T17:58:07.617Z,3.40
2023-04-16T18:00:35.671Z,3.30
2023-04-16T18:03:04.432Z,4.10
2023-04-16T18:05:32.740Z,4.20
2023-04-16T18:08:01.321Z,4.60
2023-04-16T18:10:31.872Z,4.90
2023-04-16T18:12:59.931Z,4.40
2023-04-16T18:15:28.037Z,3.50
2023-04-16T18:17:56.186Z,3.10
2023-04-16T18:20:24.375Z,5.00
2023-04-16T18:22:52.513Z,3.50
2023-04-16T18:25:29.975Z,4.10
2023-04-16T18:28:03.856Z,4.70
2023-04-16T18:30:32.738Z,5.80
2023-04-16T18:33:33.619Z,3.20
2023-04-16T18:35:50.152Z,3.60
2023-04-16T18:38:18.228Z,5.50
2023-04-16T18:40:47.215Z,4.70
2023-04-16T18:43:16.108Z,5.90
2023-04-16T18:45:44.278Z,6.60
2023-04-16T18:48:12.550Z,12.10
2023-04-16T18:50:40.722Z,5.80
2023-04-16T18:53:08.909Z,7.80
2023-04-16T18:55:37.068Z,8.40
2023-04-16T18:58:05.656Z,8.20
2023-04-16T19:00:33.822Z,6.50
2023-04-16T19:03:07.124Z,6.70
2023-04-16T19:05:35.680Z,8.80
2023-04-16T19:08:03.901Z,4.90
2023-04-16T19:10:31.958Z,5.20
2023-04-16T19:13:00.149Z,4.90
2023-04-16T19:15:31.098Z,5.50
2023-04-16T19:18:00.628Z,6.70
2023-04-16T19:20:28.912Z,5.20
2023-04-16T19:23:00.197Z,6.90
2023-04-16T19:25:28.360Z,15.30
2023-04-16T19:27:56.849Z,20.90
2023-04-16T19:30:25.072Z,5.10
2023-04-16T19:32:55.124Z,7.60
2023-04-16T19:35:23.627Z,6.80
2023-04-16T19:37:51.611Z,6.50
2023-04-16T19:40:19.785Z,5.60
2023-04-16T19:42:47.959Z,6.20
2023-04-16T19:45:16.436Z,5.70
2023-04-16T19:47:44.939Z,6.90
2023-04-16T19:50:13.096Z,6.10
2023-04-16T19:52:41.469Z,7.20
2023-04-16T19:55:10.249Z,11.10
2023-04-16T19:57:38.247Z,5.10
2023-04-16T20:00:11.973Z,5.90
2023-04-16T20:02:40.889Z,4.00
2023-04-16T20:05:09.803Z,5.70
2023-04-16T20:07:37.885Z,6.30
2023-04-16T20:10:06.413Z,6.80
2023-04-16T20:12:34.530Z,8.80
2023-04-16T20:15:02.608Z,6.60
2023-04-16T20:17:30.822Z,6.80
2023-04-16T20:20:01.164Z,4.00
2023-04-16T20:22:29.381Z,5.30
2023-04-16T20:24:58.179Z,7.80
2023-04-16T20:27:26.447Z,7.20
2023-04-16T20:29:54.614Z,7.30
2023-04-16T20:32:23.537Z,6.60
2023-04-16T20:34:52.876Z,6.20
2023-04-16T20:37:21.086Z,9.10
2023-04-16T20:39:54.307Z,6.00
2023-04-16T20:42:23.038Z,6.70
2023-04-16T20:44:55.865Z,6.60
2023-04-16T20:47:24.068Z,6.70
2023-04-16T20:49:54.988Z,6.70
2023-04-16T20:52:23.033Z,7.70
2023-04-16T20:54:52.558Z,6.60
2023-04-16T20:57:20.606Z,7.50
2023-04-16T20:59:49.606Z,6.90
2023-04-16T21:02:17.889Z,6.00
2023-04-16T21:04:46.781Z,6.80
2023-04-16T21:07:15.788Z,7.70
2023-04-16T21:09:44.048Z,9.50
2023-04-16T21:12:12.120Z,6.20
2023-04-16T21:14:40.489Z,4.90
2023-04-16T21:17:08.515Z,6.10
2023-04-16T21:19:36.528Z,6.90
2023-04-16T21:22:04.917Z,6.30
2023-04-16T21:24:32.894Z,6.70
2023-04-16T21:27:01.860Z,6.10
2023-04-16T21:29:30.457Z,4.50
2023-04-16T21:31:58.592Z,7.60
2023-04-16T21:34:26.626Z,6.50
2023-04-16T21:36:54.675Z,6.00
2023-04-16T21:39:22.948Z,5.40
2023-04-16T21:41:51.128Z,5.80
2023-04-16T21:44:19.201Z,5.30
2023-04-16T21:46:47.315Z,6.10
2023-04-16T21:49:15.539Z,5.50
2023-04-16T21:51:46.274Z,5.40
2023-04-16T21:54:18.002Z,10.00
2023-04-16T21:56:46.410Z,6.50
2023-04-16T21:59:14.591Z,6.80
2023-04-16T22:01:42.796Z,8.30
2023-04-16T22:04:12.406Z,8.30
2023-04-16T22:06:40.849Z,8.00
2023-04-16T22:09:09.805Z,7.20
2023-04-16T22:11:38.432Z,5.80
2023-04-16T22:14:08.360Z,6.40
2023-04-16T22:16:36.601Z,7.80
2023-04-16T22:19:04.898Z,5.00
2023-04-16T22:21:32.966Z,5.70
2023-04-16T22:24:01.141Z,6.10
2023-04-16T22:26:29.256Z,6.40
2023-04-16T22:28:57.280Z,6.90
2023-04-16T22:31:25.379Z,7.10
2023-04-16T22:33:53.636Z,8.40
2023-04-16T22:36:22.123Z,8.20
2023-04-16T22:38:50.498Z,8.40
2023-04-16T22:41:18.583Z,9.20
2023-04-16T22:43:46.764Z,10.40
2023-04-16T22:46:15.207Z,8.30
2023-04-16T22:48:43.389Z,8.40
2023-04-16T22:51:11.669Z,8.60
2023-04-16T22:53:39.611Z,9.00
2023-04-16T22:56:07.836Z,8.00
2023-04-16T22:58:36.184Z,8.80
2023-04-16T23:01:04.310Z,8.00
2023-04-16T23:03:32.524Z,7.00
2023-04-16T23:06:00.807Z,8.30
2023-04-16T23:08:28.806Z,7.80
2023-04-16T23:10:56.956Z,6.50
2023-04-16T23:13:25.030Z,6.10
2023-04-16T23:15:53.163Z,6.20
2023-04-16T23:18:21.273Z,5.40
2023-04-16T23:20:53.140Z,7.60
2023-04-16T23:23:21.413Z,8.40
2023-04-16T23:25:53.287Z,7.60
2023-04-16T23:28:22.368Z,6.00
2023-04-16T23:30:53.574Z,5.70
2023-04-16T23:33:21.895Z,6.20
2023-04-16T23:35:49.860Z,3.70
2023-04-16T23:38:17.934Z,4.30
2023-04-16T23:40:46.100Z,4.00
2023-04-16T23:43:14.174Z,4.40
2023-04-16T23:45:42.208Z,4.40
2023-04-16T23:48:10.645Z,5.40
2023-04-16T23:50:38.705Z,7.90
2023-04-16T23:53:06.769Z,4.80
2023-04-16T23:55:34.846Z,6.00
2023-04-16T23:58:03.137Z,8.00
